sensor_id;sensor_type;location;lat;lon;timestamp;temperature;humidity
17399;DHT22;8817;48.170;8.592;2023-01-28T00:00:55;3.90;54.70
17399;DHT22;8817;48.170;8.592;2023-01-28T00:03:22;4.00;54.70
17399;DHT22;8817;48.170;8.592;2023-01-28T00:05:50;3.90;54.70
17399;DHT22;8817;48.170;8.592;2023-01-28T00:08:18;3.90;54.70
17399;DHT22;8817;48.170;8.592;2023-01-28T00:10:45;3.90;54.70
17399;DHT22;8817;48.170;8.592;2023-01-28T00:13:14;3.90;54.70
17399;DHT22;8817;48.170;8.592;2023-01-28T00:15:41;3.90;55.30
17399;DHT22;8817;48.170;8.592;2023-01-28T00:18:08;4.00;54.80
17399;DHT22;8817;48.170;8.592;2023-01-28T00:20:35;4.00;54.80
17399;DHT22;8817;48.170;8.592;2023-01-28T00:23:02;4.10;54.90
17399;DHT22;8817;48.170;8.592;2023-01-28T00:25:29;4.00;54.80
17399;DHT22;8817;48.170;8.592;2023-01-28T00:27:56;4.00;54.80
17399;DHT22;8817;48.170;8.592;2023-01-28T00:30:25;3.90;55.30
17399;DHT22;8817;48.170;8.592;2023-01-28T00:32:53;4.00;54.80
17399;DHT22;8817;48.170;8.592;2023-01-28T00:35:20;3.90;54.70
17399;DHT22;8817;48.170;8.592;2023-01-28T00:37:47;4.00;54.80
17399;DHT22;8817;48.170;8.592;2023-01-28T00:40:14;4.00;54.80
17399;DHT22;8817;48.170;8.592;2023-01-28T00:42:41;4.00;54.80
17399;DHT22;8817;48.170;8.592;2023-01-28T00:45:09;4.00;54.80
17399;DHT22;8817;48.170;8.592;2023-01-28T00:47:37;4.00;54.80
17399;DHT22;8817;48.170;8.592;2023-01-28T00:50:05;4.00;54.80
17399;DHT22;8817;48.170;8.592;2023-01-28T00:52:32;4.00;54.80
17399;DHT22;8817;48.170;8.592;2023-01-28T00:54:59;3.90;54.80
17399;DHT22;8817;48.170;8.592;2023-01-28T00:57:26;4.00;54.80
17399;DHT22;8817;48.170;8.592;2023-01-28T00:59:53;4.00;54.80
17399;DHT22;8817;48.170;8.592;2023-01-28T01:02:20;3.90;54.70
17399;DHT22;8817;48.170;8.592;2023-01-28T01:04:48;4.00;54.80
17399;DHT22;8817;48.170;8.592;2023-01-28T01:07:25;3.90;54.80
17399;DHT22;8817;48.170;8.592;2023-01-28T01:09:59;4.00;54.80
17399;DHT22;8817;48.170;8.592;2023-01-28T01:12:26;4.00;54.80
17399;DHT22;8817;48.170;8.592;2023-01-28T01:14:54;4.00;54.80
17399;DHT22;8817;48.170;8.592;2023-01-28T01:17:21;4.00;54.80
17399;DHT22;8817;48.170;8.592;2023-01-28T01:19:49;4.00;55.30
17399;DHT22;8817;48.170;8.592;2023-01-28T01:22:16;4.00;54.80
17399;DHT22;8817;48.170;8.592;2023-01-28T01:24:43;4.00;54.80
17399;DHT22;8817;48.170;8.592;2023-01-28T01:27:10;4.00;54.80
17399;DHT22;8817;48.170;8.592;2023-01-28T01:29:37;4.00;54.90
17399;DHT22;8817;48.170;8.592;2023-01-28T01:32:04;4.00;54.80
17399;DHT22;8817;48.170;8.592;2023-01-28T01:34:31;4.00;54.80
17399;DHT22;8817;48.170;8.592;2023-01-28T01:36:59;4.00;54.80
17399;DHT22;8817;48.170;8.592;2023-01-28T01:39:26;4.00;54.90
17399;DHT22;8817;48.170;8.592;2023-01-28T01:41:53;4.00;54.80
17399;DHT22;8817;48.170;8.592;2023-01-28T01:44:51;4.00;54.80
17399;DHT22;8817;48.170;8.592;2023-01-28T01:47:19;4.00;54.80
17399;DHT22;8817;48.170;8.592;2023-01-28T01:49:48;4.00;54.80
17399;DHT22;8817;48.170;8.592;2023-01-28T01:52:18;4.00;54.80
17399;DHT22;8817;48.170;8.592;2023-01-28T01:54:49;4.00;54.80
17399;DHT22;8817;48.170;8.592;2023-01-28T01:57:23;4.00;54.80
17399;DHT22;8817;48.170;8.592;2023-01-28T01:59:53;3.90;54.80
17399;DHT22;8817;48.170;8.592;2023-01-28T02:02:21;3.90;54.80
17399;DHT22;8817;48.170;8.592;2023-01-28T02:04:47;4.00;54.90
17399;DHT22;8817;48.170;8.592;2023-01-28T02:07:18;4.00;54.90
17399;DHT22;8817;48.170;8.592;2023-01-28T02:09:45;4.00;54.90
17399;DHT22;8817;48.170;8.592;2023-01-28T02:12:15;4.00;54.90
17399;DHT22;8817;48.170;8.592;2023-01-28T02:14:46;3.90;54.80
17399;DHT22;8817;48.170;8.592;2023-01-28T02:17:14;4.00;54.90
17399;DHT22;8817;48.170;8.592;2023-01-28T02:19:47;4.00;54.90
17399;DHT22;8817;48.170;8.592;2023-01-28T02:22:45;4.00;54.90
17399;DHT22;8817;48.170;8.592;2023-01-28T02:25:34;4.00;54.90
17399;DHT22;8817;48.170;8.592;2023-01-28T02:28:21;4.00;54.80
17399;DHT22;8817;48.170;8.592;2023-01-28T02:30:52;4.00;54.80
17399;DHT22;8817;48.170;8.592;2023-01-28T02:33:28;4.00;54.80
17399;DHT22;8817;48.170;8.592;2023-01-28T02:36:00;4.00;54.80
17399;DHT22;8817;48.170;8.592;2023-01-28T02:38:32;4.00;54.80
17399;DHT22;8817;48.170;8.592;2023-01-28T02:41:04;4.00;54.80
17399;DHT22;8817;48.170;8.592;2023-01-28T02:43:38;4.00;54.80
17399;DHT22;8817;48.170;8.592;2023-01-28T02:46:17;4.00;54.80
17399;DHT22;8817;48.170;8.592;2023-01-28T02:49:06;3.90;54.80
17399;DHT22;8817;48.170;8.592;2023-01-28T02:51:52;3.90;54.80
17399;DHT22;8817;48.170;8.592;2023-01-28T02:54:32;3.90;54.80
17399;DHT22;8817;48.170;8.592;2023-01-28T02:57:05;3.90;54.80
17399;DHT22;8817;48.170;8.592;2023-01-28T02:59:40;3.90;54.80
17399;DHT22;8817;48.170;8.592;2023-01-28T03:02:12;3.90;54.90
17399;DHT22;8817;48.170;8.592;2023-01-28T03:04:45;3.90;54.90
17399;DHT22;8817;48.170;8.592;2023-01-28T03:07:15;3.90;54.90
17399;DHT22;8817;48.170;8.592;2023-01-28T03:09:44;3.90;54.80
17399;DHT22;8817;48.170;8.592;2023-01-28T03:12:15;3.90;54.80
17399;DHT22;8817;48.170;8.592;2023-01-28T03:15:05;3.90;55.10
17399;DHT22;8817;48.170;8.592;2023-01-28T03:17:56;3.90;54.80
17399;DHT22;8817;48.170;8.592;2023-01-28T03:20:45;3.90;54.90
17399;DHT22;8817;48.170;8.592;2023-01-28T03:23:34;3.90;54.90
17399;DHT22;8817;48.170;8.592;2023-01-28T03:26:22;3.90;54.90
17399;DHT22;8817;48.170;8.592;2023-01-28T03:29:09;3.90;54.90
17399;DHT22;8817;48.170;8.592;2023-01-28T03:31:57;3.90;54.90
17399;DHT22;8817;48.170;8.592;2023-01-28T03:34:43;3.90;54.90
17399;DHT22;8817;48.170;8.592;2023-01-28T03:37:29;3.90;54.90
17399;DHT22;8817;48.170;8.592;2023-01-28T03:40:01;3.90;55.00
17399;DHT22;8817;48.170;8.592;2023-01-28T03:42:30;3.90;55.00
17399;DHT22;8817;48.170;8.592;2023-01-28T03:44:58;3.90;55.00
17399;DHT22;8817;48.170;8.592;2023-01-28T03:47:30;3.90;55.00
17399;DHT22;8817;48.170;8.592;2023-01-28T03:49:58;3.90;55.00
17399;DHT22;8817;48.170;8.592;2023-01-28T03:52:28;3.90;55.00
17399;DHT22;8817;48.170;8.592;2023-01-28T03:54:56;4.00;55.00
17399;DHT22;8817;48.170;8.592;2023-01-28T03:57:25;4.00;55.00
17399;DHT22;8817;48.170;8.592;2023-01-28T03:59:53;4.00;54.90
17399;DHT22;8817;48.170;8.592;2023-01-28T04:02:21;4.00;54.90
17399;DHT22;8817;48.170;8.592;2023-01-28T04:04:49;4.00;54.90
17399;DHT22;8817;48.170;8.592;2023-01-28T04:07:16;4.00;54.90
17399;DHT22;8817;48.170;8.592;2023-01-28T04:09:43;4.00;54.90
17399;DHT22;8817;48.170;8.592;2023-01-28T04:12:11;4.00;54.90
17399;DHT22;8817;48.170;8.592;2023-01-28T04:14:38;4.00;54.90
17399;DHT22;8817;48.170;8.592;2023-01-28T04:17:05;4.00;54.90
17399;DHT22;8817;48.170;8.592;2023-01-28T04:19:35;4.00;54.90
17399;DHT22;8817;48.170;8.592;2023-01-28T04:22:05;4.00;54.90
17399;DHT22;8817;48.170;8.592;2023-01-28T04:24:33;4.00;54.90
17399;DHT22;8817;48.170;8.592;2023-01-28T04:27:00;4.00;54.90
17399;DHT22;8817;48.170;8.592;2023-01-28T04:29:27;4.00;54.90
17399;DHT22;8817;48.170;8.592;2023-01-28T04:31:54;4.00;54.90
17399;DHT22;8817;48.170;8.592;2023-01-28T04:34:20;4.00;54.90
17399;DHT22;8817;48.170;8.592;2023-01-28T04:36:47;4.00;54.90
17399;DHT22;8817;48.170;8.592;2023-01-28T04:39:16;4.00;54.90
17399;DHT22;8817;48.170;8.592;2023-01-28T04:41:43;4.00;54.80
17399;DHT22;8817;48.170;8.592;2023-01-28T04:44:10;4.00;54.90
17399;DHT22;8817;48.170;8.592;2023-01-28T04:46:38;4.00;54.90
17399;DHT22;8817;48.170;8.592;2023-01-28T04:49:05;4.00;54.90
17399;DHT22;8817;48.170;8.592;2023-01-28T04:51:32;3.90;54.90
17399;DHT22;8817;48.170;8.592;2023-01-28T04:53:59;3.90;54.90
17399;DHT22;8817;48.170;8.592;2023-01-28T04:56:27;3.90;54.90
17399;DHT22;8817;48.170;8.592;2023-01-28T04:58:54;3.90;54.90
17399;DHT22;8817;48.170;8.592;2023-01-28T05:01:21;4.00;54.90
17399;DHT22;8817;48.170;8.592;2023-01-28T05:03:49;3.90;54.90
17399;DHT22;8817;48.170;8.592;2023-01-28T05:06:16;3.90;54.90
17399;DHT22;8817;48.170;8.592;2023-01-28T05:08:43;4.00;54.90
17399;DHT22;8817;48.170;8.592;2023-01-28T05:11:11;3.90;54.90
17399;DHT22;8817;48.170;8.592;2023-01-28T05:13:39;4.00;55.00
17399;DHT22;8817;48.170;8.592;2023-01-28T05:16:06;3.90;54.90
17399;DHT22;8817;48.170;8.592;2023-01-28T05:18:33;3.90;54.90
17399;DHT22;8817;48.170;8.592;2023-01-28T05:21:00;4.00;55.00
17399;DHT22;8817;48.170;8.592;2023-01-28T05:23:27;3.90;55.00
17399;DHT22;8817;48.170;8.592;2023-01-28T05:25:54;4.00;55.00
17399;DHT22;8817;48.170;8.592;2023-01-28T05:28:21;4.00;55.00
17399;DHT22;8817;48.170;8.592;2023-01-28T05:30:49;4.00;55.00
17399;DHT22;8817;48.170;8.592;2023-01-28T05:33:16;4.00;55.00
17399;DHT22;8817;48.170;8.592;2023-01-28T05:35:43;4.00;55.00
17399;DHT22;8817;48.170;8.592;2023-01-28T05:38:10;4.00;55.00
17399;DHT22;8817;48.170;8.592;2023-01-28T05:40:37;4.00;55.00
17399;DHT22;8817;48.170;8.592;2023-01-28T05:43:04;4.00;55.00
17399;DHT22;8817;48.170;8.592;2023-01-28T05:45:31;4.00;55.00
17399;DHT22;8817;48.170;8.592;2023-01-28T05:47:59;4.00;55.00
17399;DHT22;8817;48.170;8.592;2023-01-28T05:50:26;4.00;55.00
17399;DHT22;8817;48.170;8.592;2023-01-28T05:52:53;4.00;55.00
17399;DHT22;8817;48.170;8.592;2023-01-28T05:55:20;4.10;55.60
17399;DHT22;8817;48.170;8.592;2023-01-28T05:57:48;4.00;55.20
17399;DHT22;8817;48.170;8.592;2023-01-28T06:00:16;4.10;55.00
17399;DHT22;8817;48.170;8.592;2023-01-28T06:02:43;4.00;55.00
17399;DHT22;8817;48.170;8.592;2023-01-28T06:05:11;4.10;55.10
17399;DHT22;8817;48.170;8.592;2023-01-28T06:07:38;4.10;55.00
17399;DHT22;8817;48.170;8.592;2023-01-28T06:10:06;4.10;55.10
17399;DHT22;8817;48.170;8.592;2023-01-28T06:12:33;4.10;55.00
17399;DHT22;8817;48.170;8.592;2023-01-28T06:15:00;4.10;55.00
17399;DHT22;8817;48.170;8.592;2023-01-28T06:17:27;4.10;55.00
17399;DHT22;8817;48.170;8.592;2023-01-28T06:19:54;4.10;55.00
17399;DHT22;8817;48.170;8.592;2023-01-28T06:22:23;4.10;55.00
17399;DHT22;8817;48.170;8.592;2023-01-28T06:24:50;4.10;55.00
17399;DHT22;8817;48.170;8.592;2023-01-28T06:27:17;4.10;55.00
17399;DHT22;8817;48.170;8.592;2023-01-28T06:29:44;4.10;55.00
17399;DHT22;8817;48.170;8.592;2023-01-28T06:32:11;4.10;55.00
17399;DHT22;8817;48.170;8.592;2023-01-28T06:34:38;4.10;55.00
17399;DHT22;8817;48.170;8.592;2023-01-28T06:37:05;4.10;55.00
17399;DHT22;8817;48.170;8.592;2023-01-28T06:39:33;4.10;55.00
17399;DHT22;8817;48.170;8.592;2023-01-28T06:42:00;4.10;55.00
17399;DHT22;8817;48.170;8.592;2023-01-28T06:44:27;4.10;55.00
17399;DHT22;8817;48.170;8.592;2023-01-28T06:46:54;4.10;55.00
17399;DHT22;8817;48.170;8.592;2023-01-28T06:49:21;4.10;55.00
17399;DHT22;8817;48.170;8.592;2023-01-28T06:51:48;4.10;55.00
17399;DHT22;8817;48.170;8.592;2023-01-28T06:54:15;4.10;55.00
17399;DHT22;8817;48.170;8.592;2023-01-28T06:56:44;4.10;55.00
17399;DHT22;8817;48.170;8.592;2023-01-28T06:59:11;4.10;55.00
17399;DHT22;8817;48.170;8.592;2023-01-28T07:01:38;4.10;55.10
17399;DHT22;8817;48.170;8.592;2023-01-28T07:04:05;4.10;55.00
17399;DHT22;8817;48.170;8.592;2023-01-28T07:06:33;4.10;55.00
17399;DHT22;8817;48.170;8.592;2023-01-28T07:09:00;4.20;55.10
17399;DHT22;8817;48.170;8.592;2023-01-28T07:11:27;4.20;55.60
17399;DHT22;8817;48.170;8.592;2023-01-28T07:13:55;4.20;55.00
17399;DHT22;8817;48.170;8.592;2023-01-28T07:16:22;4.20;55.00
17399;DHT22;8817;48.170;8.592;2023-01-28T07:18:49;4.10;55.00
17399;DHT22;8817;48.170;8.592;2023-01-28T07:21:16;4.20;55.10
17399;DHT22;8817;48.170;8.592;2023-01-28T07:23:43;4.20;55.10
17399;DHT22;8817;48.170;8.592;2023-01-28T07:26:10;4.20;55.60
17399;DHT22;8817;48.170;8.592;2023-01-28T07:28:37;4.10;55.00
17399;DHT22;8817;48.170;8.592;2023-01-28T07:31:05;4.20;55.10
17399;DHT22;8817;48.170;8.592;2023-01-28T07:33:32;4.20;55.10
17399;DHT22;8817;48.170;8.592;2023-01-28T07:35:59;4.20;55.70
17399;DHT22;8817;48.170;8.592;2023-01-28T07:38:26;4.20;55.10
17399;DHT22;8817;48.170;8.592;2023-01-28T07:40:53;4.20;55.10
17399;DHT22;8817;48.170;8.592;2023-01-28T07:43:20;4.20;55.10
17399;DHT22;8817;48.170;8.592;2023-01-28T07:45:47;4.20;55.10
17399;DHT22;8817;48.170;8.592;2023-01-28T07:48:16;4.20;55.10
17399;DHT22;8817;48.170;8.592;2023-01-28T07:50:43;4.20;55.10
17399;DHT22;8817;48.170;8.592;2023-01-28T07:53:11;4.20;55.10
17399;DHT22;8817;48.170;8.592;2023-01-28T07:55:38;4.20;55.10
17399;DHT22;8817;48.170;8.592;2023-01-28T07:58:06;4.20;55.00
17399;DHT22;8817;48.170;8.592;2023-01-28T08:00:35;4.20;55.00
17399;DHT22;8817;48.170;8.592;2023-01-28T08:03:04;4.20;55.10
17399;DHT22;8817;48.170;8.592;2023-01-28T08:05:37;4.20;55.10
17399;DHT22;8817;48.170;8.592;2023-01-28T08:08:06;4.20;55.10
17399;DHT22;8817;48.170;8.592;2023-01-28T08:10:33;4.20;55.10
17399;DHT22;8817;48.170;8.592;2023-01-28T08:13:01;4.20;55.10
17399;DHT22;8817;48.170;8.592;2023-01-28T08:15:28;4.30;55.20
17399;DHT22;8817;48.170;8.592;2023-01-28T08:17:56;4.30;55.20
17399;DHT22;8817;48.170;8.592;2023-01-28T08:20:24;4.30;55.30
17399;DHT22;8817;48.170;8.592;2023-01-28T08:23:02;4.30;55.30
17399;DHT22;8817;48.170;8.592;2023-01-28T08:25:30;4.30;55.30
17399;DHT22;8817;48.170;8.592;2023-01-28T08:27:57;4.30;55.30
17399;DHT22;8817;48.170;8.592;2023-01-28T08:30:24;4.40;55.30
17399;DHT22;8817;48.170;8.592;2023-01-28T08:32:50;4.40;55.30
17399;DHT22;8817;48.170;8.592;2023-01-28T08:35:20;4.40;55.30
17399;DHT22;8817;48.170;8.592;2023-01-28T08:37:47;4.40;55.30
17399;DHT22;8817;48.170;8.592;2023-01-28T11:57:52;0.20;66.00
17399;DHT22;8817;48.170;8.592;2023-01-28T12:00:37;3.90;61.80
17399;DHT22;8817;48.170;8.592;2023-01-28T12:03:21;4.50;60.40
17399;DHT22;8817;48.170;8.592;2023-01-28T12:05:53;4.80;59.90
17399;DHT22;8817;48.170;8.592;2023-01-28T12:08:24;5.10;58.80
17399;DHT22;8817;48.170;8.592;2023-01-28T12:11:07;5.30;58.30
17399;DHT22;8817;48.170;8.592;2023-01-28T12:13:51;5.40;58.00
17399;DHT22;8817;48.170;8.592;2023-01-28T12:16:40;5.50;57.80
17399;DHT22;8817;48.170;8.592;2023-01-28T12:19:20;5.60;57.60
17399;DHT22;8817;48.170;8.592;2023-01-28T12:22:19;5.70;57.50
17399;DHT22;8817;48.170;8.592;2023-01-28T12:25:11;5.70;57.40
17399;DHT22;8817;48.170;8.592;2023-01-28T12:27:46;5.70;57.30
17399;DHT22;8817;48.170;8.592;2023-01-28T12:35:49;5.70;56.70
17399;DHT22;8817;48.170;8.592;2023-01-28T12:38:27;5.70;57.30
17399;DHT22;8817;48.170;8.592;2023-01-28T12:41:01;5.70;57.20
17399;DHT22;8817;48.170;8.592;2023-01-28T12:43:52;5.80;57.20
17399;DHT22;8817;48.170;8.592;2023-01-28T12:46:37;5.80;57.20
17399;DHT22;8817;48.170;8.592;2023-01-28T12:49:09;5.80;57.00
17399;DHT22;8817;48.170;8.592;2023-01-28T12:51:48;5.90;57.10
17399;DHT22;8817;48.170;8.592;2023-01-28T12:54:21;5.90;57.00
17399;DHT22;8817;48.170;8.592;2023-01-28T12:56:50;5.90;57.00
17399;DHT22;8817;48.170;8.592;2023-01-28T12:59:23;5.90;57.50
17399;DHT22;8817;48.170;8.592;2023-01-28T13:01:56;5.90;56.90
17399;DHT22;8817;48.170;8.592;2023-01-28T13:04:33;6.00;57.00
17399;DHT22;8817;48.170;8.592;2023-01-28T13:07:05;6.00;56.90
17399;DHT22;8817;48.170;8.592;2023-01-28T13:09:34;6.00;56.90
17399;DHT22;8817;48.170;8.592;2023-01-28T13:12:03;6.00;56.80
17399;DHT22;8817;48.170;8.592;2023-01-28T13:14:32;6.00;56.80
17399;DHT22;8817;48.170;8.592;2023-01-28T13:20:14;6.00;56.70
17399;DHT22;8817;48.170;8.592;2023-01-28T13:22:43;6.00;56.70
17399;DHT22;8817;48.170;8.592;2023-01-28T13:25:22;6.00;56.60
17399;DHT22;8817;48.170;8.592;2023-01-28T13:27:57;6.00;56.60
17399;DHT22;8817;48.170;8.592;2023-01-28T13:30:27;6.00;56.80
17399;DHT22;8817;48.170;8.592;2023-01-28T13:32:57;6.00;56.60
17399;DHT22;8817;48.170;8.592;2023-01-28T13:35:30;6.00;56.60
17399;DHT22;8817;48.170;8.592;2023-01-28T13:38:04;6.00;56.60
17399;DHT22;8817;48.170;8.592;2023-01-28T13:40:33;6.00;56.50
17399;DHT22;8817;48.170;8.592;2023-01-28T13:43:02;6.00;56.50
17399;DHT22;8817;48.170;8.592;2023-01-28T13:45:31;6.00;56.50
17399;DHT22;8817;48.170;8.592;2023-01-28T13:48:02;6.00;56.60
17399;DHT22;8817;48.170;8.592;2023-01-28T13:50:37;6.00;57.00
17399;DHT22;8817;48.170;8.592;2023-01-28T13:53:18;6.00;56.50
17399;DHT22;8817;48.170;8.592;2023-01-28T13:55:49;6.00;56.50
17399;DHT22;8817;48.170;8.592;2023-01-28T13:58:43;6.00;56.40
17399;DHT22;8817;48.170;8.592;2023-01-28T14:08:11;5.90;56.30
17399;DHT22;8817;48.170;8.592;2023-01-28T14:10:51;5.90;56.30
17399;DHT22;8817;48.170;8.592;2023-01-28T14:13:38;5.90;56.30
17399;DHT22;8817;48.170;8.592;2023-01-28T14:16:34;5.90;56.40
17399;DHT22;8817;48.170;8.592;2023-01-28T14:19:02;5.80;56.40
17399;DHT22;8817;48.170;8.592;2023-01-28T14:21:33;5.90;56.40
17399;DHT22;8817;48.170;8.592;2023-01-28T14:24:00;5.90;56.40
17399;DHT22;8817;48.170;8.592;2023-01-28T14:26:39;5.90;56.50
17399;DHT22;8817;48.170;8.592;2023-01-28T14:29:16;5.80;56.50
17399;DHT22;8817;48.170;8.592;2023-01-28T14:31:44;5.90;56.50
17399;DHT22;8817;48.170;8.592;2023-01-28T14:34:18;5.90;56.50
17399;DHT22;8817;48.170;8.592;2023-01-28T14:36:47;5.90;56.40
17399;DHT22;8817;48.170;8.592;2023-01-28T14:39:16;6.00;56.50
17399;DHT22;8817;48.170;8.592;2023-01-28T14:41:47;6.00;56.50
17399;DHT22;8817;48.170;8.592;2023-01-28T14:44:26;6.00;56.40
17399;DHT22;8817;48.170;8.592;2023-01-28T14:47:07;6.00;56.40
17399;DHT22;8817;48.170;8.592;2023-01-28T14:49:44;6.00;56.40
17399;DHT22;8817;48.170;8.592;2023-01-28T14:52:28;6.00;56.40
17399;DHT22;8817;48.170;8.592;2023-01-28T14:55:07;6.00;56.40
17399;DHT22;8817;48.170;8.592;2023-01-28T14:57:44;6.00;56.30
17399;DHT22;8817;48.170;8.592;2023-01-28T15:00:20;6.00;56.20
17399;DHT22;8817;48.170;8.592;2023-01-28T15:02:47;6.00;56.20
17399;DHT22;8817;48.170;8.592;2023-01-28T15:05:17;6.00;56.20
17399;DHT22;8817;48.170;8.592;2023-01-28T15:07:45;5.90;56.10
17399;DHT22;8817;48.170;8.592;2023-01-28T15:10:17;5.90;56.20
17399;DHT22;8817;48.170;8.592;2023-01-28T15:12:49;5.90;56.10
17399;DHT22;8817;48.170;8.592;2023-01-28T15:15:23;5.90;56.10
17399;DHT22;8817;48.170;8.592;2023-01-28T15:17:51;5.90;56.10
17399;DHT22;8817;48.170;8.592;2023-01-28T15:20:21;5.90;56.10
17399;DHT22;8817;48.170;8.592;2023-01-28T15:22:49;5.90;56.10
17399;DHT22;8817;48.170;8.592;2023-01-28T15:25:20;5.80;56.00
17399;DHT22;8817;48.170;8.592;2023-01-28T15:27:50;5.80;56.00
17399;DHT22;8817;48.170;8.592;2023-01-28T15:30:21;5.80;56.00
17399;DHT22;8817;48.170;8.592;2023-01-28T15:32:59;5.80;56.00
17399;DHT22;8817;48.170;8.592;2023-01-28T15:35:27;5.80;56.00
17399;DHT22;8817;48.170;8.592;2023-01-28T15:37:54;5.70;56.00
17399;DHT22;8817;48.170;8.592;2023-01-28T15:40:22;5.70;55.90
17399;DHT22;8817;48.170;8.592;2023-01-28T15:42:53;5.70;55.90
17399;DHT22;8817;48.170;8.592;2023-01-28T15:45:23;5.70;56.00
17399;DHT22;8817;48.170;8.592;2023-01-28T15:47:52;5.60;55.90
17399;DHT22;8817;48.170;8.592;2023-01-28T15:50:27;5.60;55.90
17399;DHT22;8817;48.170;8.592;2023-01-28T15:52:54;5.60;55.90
17399;DHT22;8817;48.170;8.592;2023-01-28T15:55:37;5.60;55.90
17399;DHT22;8817;48.170;8.592;2023-01-28T15:58:30;5.60;55.90
17399;DHT22;8817;48.170;8.592;2023-01-28T16:01:03;5.50;55.90
17399;DHT22;8817;48.170;8.592;2023-01-28T16:03:30;5.50;55.90
17399;DHT22;8817;48.170;8.592;2023-01-28T16:06:03;5.50;55.90
17399;DHT22;8817;48.170;8.592;2023-01-28T16:08:36;5.50;55.90
17399;DHT22;8817;48.170;8.592;2023-01-28T16:11:05;5.50;55.90
17399;DHT22;8817;48.170;8.592;2023-01-28T16:13:34;5.40;55.90
17399;DHT22;8817;48.170;8.592;2023-01-28T16:16:02;5.40;55.90
17399;DHT22;8817;48.170;8.592;2023-01-28T16:18:37;5.40;55.90
17399;DHT22;8817;48.170;8.592;2023-01-28T16:21:06;5.40;55.90
17399;DHT22;8817;48.170;8.592;2023-01-28T16:23:34;5.40;55.90
17399;DHT22;8817;48.170;8.592;2023-01-28T16:26:02;4.90;56.40
17399;DHT22;8817;48.170;8.592;2023-01-28T16:28:30;5.20;56.60
17399;DHT22;8817;48.170;8.592;2023-01-28T16:30:58;5.30;56.30
17399;DHT22;8817;48.170;8.592;2023-01-28T16:33:25;5.40;56.20
17399;DHT22;8817;48.170;8.592;2023-01-28T16:35:52;5.40;56.00
17399;DHT22;8817;48.170;8.592;2023-01-28T16:38:20;5.40;55.90
17399;DHT22;8817;48.170;8.592;2023-01-28T16:40:47;5.40;55.90
17399;DHT22;8817;48.170;8.592;2023-01-28T16:43:16;5.40;55.80
17399;DHT22;8817;48.170;8.592;2023-01-28T16:45:43;5.40;55.80
17399;DHT22;8817;48.170;8.592;2023-01-28T16:48:12;5.40;55.90
17399;DHT22;8817;48.170;8.592;2023-01-28T16:50:40;5.40;55.80
17399;DHT22;8817;48.170;8.592;2023-01-28T16:53:18;5.40;55.90
17399;DHT22;8817;48.170;8.592;2023-01-28T16:55:45;5.30;55.80
17399;DHT22;8817;48.170;8.592;2023-01-28T16:58:16;5.30;56.40
17399;DHT22;8817;48.170;8.592;2023-01-28T17:00:44;5.30;55.90
17399;DHT22;8817;48.170;8.592;2023-01-28T17:03:12;5.30;55.80
17399;DHT22;8817;48.170;8.592;2023-01-28T17:05:39;5.30;55.80
17399;DHT22;8817;48.170;8.592;2023-01-28T17:08:06;5.30;55.90
17399;DHT22;8817;48.170;8.592;2023-01-28T17:10:33;5.30;55.80
17399;DHT22;8817;48.170;8.592;2023-01-28T17:13:00;5.30;55.90
17399;DHT22;8817;48.170;8.592;2023-01-28T17:15:27;5.20;55.80
17399;DHT22;8817;48.170;8.592;2023-01-28T17:17:54;5.20;55.80
17399;DHT22;8817;48.170;8.592;2023-01-28T17:20:22;5.30;55.90
17399;DHT22;8817;48.170;8.592;2023-01-28T17:22:49;5.20;55.80
17399;DHT22;8817;48.170;8.592;2023-01-28T17:25:16;5.30;55.90
17399;DHT22;8817;48.170;8.592;2023-01-28T17:27:43;5.20;55.90
17399;DHT22;8817;48.170;8.592;2023-01-28T17:30:11;5.30;56.00
17399;DHT22;8817;48.170;8.592;2023-01-28T17:32:38;5.20;55.90
17399;DHT22;8817;48.170;8.592;2023-01-28T17:35:05;5.30;55.90
17399;DHT22;8817;48.170;8.592;2023-01-28T17:37:34;5.30;55.90
17399;DHT22;8817;48.170;8.592;2023-01-28T17:40:03;5.20;55.90
17399;DHT22;8817;48.170;8.592;2023-01-28T17:42:30;5.20;55.90
17399;DHT22;8817;48.170;8.592;2023-01-28T17:44:57;5.30;55.90
17399;DHT22;8817;48.170;8.592;2023-01-28T17:47:28;5.30;55.90
17399;DHT22;8817;48.170;8.592;2023-01-28T17:49:55;5.30;55.90
17399;DHT22;8817;48.170;8.592;2023-01-28T17:52:22;5.30;55.90
17399;DHT22;8817;48.170;8.592;2023-01-28T17:54:50;5.20;55.80
17399;DHT22;8817;48.170;8.592;2023-01-28T17:57:17;5.20;55.80
17399;DHT22;8817;48.170;8.592;2023-01-28T17:59:44;5.20;55.80
17399;DHT22;8817;48.170;8.592;2023-01-28T18:02:12;5.20;55.80
17399;DHT22;8817;48.170;8.592;2023-01-28T18:04:40;5.20;55.80
17399;DHT22;8817;48.170;8.592;2023-01-28T18:07:08;5.20;55.90
17399;DHT22;8817;48.170;8.592;2023-01-28T18:09:36;5.30;55.90
17399;DHT22;8817;48.170;8.592;2023-01-28T18:12:06;5.20;55.80
17399;DHT22;8817;48.170;8.592;2023-01-28T18:14:33;5.20;55.80
17399;DHT22;8817;48.170;8.592;2023-01-28T18:17:00;5.20;55.80
17399;DHT22;8817;48.170;8.592;2023-01-28T18:19:27;5.20;55.90
17399;DHT22;8817;48.170;8.592;2023-01-28T18:21:54;5.20;55.90
17399;DHT22;8817;48.170;8.592;2023-01-28T18:24:22;5.20;55.90
17399;DHT22;8817;48.170;8.592;2023-01-28T18:26:49;5.20;55.80
17399;DHT22;8817;48.170;8.592;2023-01-28T18:29:17;5.20;55.80
17399;DHT22;8817;48.170;8.592;2023-01-28T18:31:48;5.20;55.80
17399;DHT22;8817;48.170;8.592;2023-01-28T18:34:16;5.20;55.80
17399;DHT22;8817;48.170;8.592;2023-01-28T18:36:43;5.20;55.80
17399;DHT22;8817;48.170;8.592;2023-01-28T18:39:11;5.20;55.80
17399;DHT22;8817;48.170;8.592;2023-01-28T18:41:38;5.20;55.80
17399;DHT22;8817;48.170;8.592;2023-01-28T18:44:06;5.20;55.80
17399;DHT22;8817;48.170;8.592;2023-01-28T18:46:34;5.20;55.80
17399;DHT22;8817;48.170;8.592;2023-01-28T18:49:02;4.90;56.20
17399;DHT22;8817;48.170;8.592;2023-01-28T18:51:29;5.10;56.40
17399;DHT22;8817;48.170;8.592;2023-01-28T18:53:57;5.10;56.10
17399;DHT22;8817;48.170;8.592;2023-01-28T18:56:24;5.20;56.10
17399;DHT22;8817;48.170;8.592;2023-01-28T18:58:54;5.20;56.00
17399;DHT22;8817;48.170;8.592;2023-01-28T19:01:21;5.20;55.90
17399;DHT22;8817;48.170;8.592;2023-01-28T19:03:49;5.20;55.90
17399;DHT22;8817;48.170;8.592;2023-01-28T19:06:16;5.30;55.90
17399;DHT22;8817;48.170;8.592;2023-01-28T19:08:43;5.30;56.00
17399;DHT22;8817;48.170;8.592;2023-01-28T19:11:10;5.30;55.90
17399;DHT22;8817;48.170;8.592;2023-01-28T19:13:37;5.20;55.80
17399;DHT22;8817;48.170;8.592;2023-01-28T19:16:04;5.20;55.70
17399;DHT22;8817;48.170;8.592;2023-01-28T19:18:31;5.20;55.80
17399;DHT22;8817;48.170;8.592;2023-01-28T19:21:02;5.20;55.80
17399;DHT22;8817;48.170;8.592;2023-01-28T19:23:29;5.20;55.80
17399;DHT22;8817;48.170;8.592;2023-01-28T19:25:56;5.20;55.80
17399;DHT22;8817;48.170;8.592;2023-01-28T19:28:30;5.20;55.80
17399;DHT22;8817;48.170;8.592;2023-01-28T19:30:57;5.20;55.80
17399;DHT22;8817;48.170;8.592;2023-01-28T19:33:24;5.20;55.90
17399;DHT22;8817;48.170;8.592;2023-01-28T19:35:54;5.20;55.90
17399;DHT22;8817;48.170;8.592;2023-01-28T19:38:23;5.20;55.90
17399;DHT22;8817;48.170;8.592;2023-01-28T19:40:50;5.20;55.90
17399;DHT22;8817;48.170;8.592;2023-01-28T19:43:17;5.20;55.90
17399;DHT22;8817;48.170;8.592;2023-01-28T19:45:54;5.20;55.90
17399;DHT22;8817;48.170;8.592;2023-01-28T19:48:21;5.20;55.90
17399;DHT22;8817;48.170;8.592;2023-01-28T19:50:48;5.20;55.80
17399;DHT22;8817;48.170;8.592;2023-01-28T19:53:14;5.20;55.80
17399;DHT22;8817;48.170;8.592;2023-01-28T19:55:44;5.20;55.80